Terminal Aerodrome Forecast
Issued by NWS

Home | Current Version | Previous Version | Text Only | Print | Product List | Glossary On
Versions: 1 2 3 4 5 6 7 8 9 10 11 12 13
000
FTUS43 KJKL 200900 AAA
TAFSME
TAF AMD
KSME 200909Z 2009/2106 VRB03KT P6SM SCT050
     FM201000 00000KT 6SM BR SCT050
     FM201400 21005KT P6SM SCT050=

USA.gov is the U.S. government's official web portal to all federal, state and local government web resources and services.